sensor_id;sensor_type;location;lat;lon;timestamp;pressure;altitude;pressure_sealevel;temperature;humidity
39789;BME280;25478;42.626;23.320;2023-01-28T00:00:52;92380.34;;;-1.79;100.00
39789;BME280;25478;42.626;23.320;2023-01-28T00:03:18;92381.88;;;-1.78;100.00
39789;BME280;25478;42.626;23.320;2023-01-28T00:05:44;92379.44;;;-1.74;100.00
39789;BME280;25478;42.626;23.320;2023-01-28T00:08:09;92380.34;;;-1.79;100.00
39789;BME280;25478;42.626;23.320;2023-01-28T00:10:36;92390.38;;;-1.77;100.00
39789;BME280;25478;42.626;23.320;2023-01-28T00:13:05;92394.28;;;-1.71;100.00
39789;BME280;25478;42.626;23.320;2023-01-28T00:15:31;92395.03;;;-1.71;100.00
39789;BME280;25478;42.626;23.320;2023-01-28T00:17:56;92400.81;;;-1.74;100.00
39789;BME280;25478;42.626;23.320;2023-01-28T00:20:22;92404.59;;;-1.71;100.00
39789;BME280;25478;42.626;23.320;2023-01-28T00:22:48;92388.72;;;-1.82;100.00
39789;BME280;25478;42.626;23.320;2023-01-28T00:25:14;92408.69;;;-1.70;100.00
39789;BME280;25478;42.626;23.320;2023-01-28T00:27:39;92411.09;;;-1.65;100.00
39789;BME280;25478;42.626;23.320;2023-01-28T00:30:05;92409.28;;;-1.64;100.00
39789;BME280;25478;42.626;23.320;2023-01-28T00:32:34;92410.03;;;-1.64;100.00
39789;BME280;25478;42.626;23.320;2023-01-28T00:35:00;92414.88;;;-1.62;100.00
39789;BME280;25478;42.626;23.320;2023-01-28T00:37:26;92419.72;;;-1.61;100.00
39789;BME280;25478;42.626;23.320;2023-01-28T00:39:51;92422.00;;;-1.59;100.00
39789;BME280;25478;42.626;23.320;2023-01-28T00:42:16;92424.88;;;-1.61;100.00
39789;BME280;25478;42.626;23.320;2023-01-28T00:44:42;92429.75;;;-1.59;100.00
39789;BME280;25478;42.626;23.320;2023-01-28T00:47:08;92419.22;;;-1.54;100.00
39789;BME280;25478;42.626;23.320;2023-01-28T00:49:33;92428.78;;;-1.55;100.00
39789;BME280;25478;42.626;23.320;2023-01-28T00:52:00;92433.31;;;-1.52;100.00
39789;BME280;25478;42.626;23.320;2023-01-28T00:54:25;92432.00;;;-1.58;99.79
39789;BME280;25478;42.626;23.320;2023-01-28T00:56:51;92430.28;;;-1.54;100.00
39789;BME280;25478;42.626;23.320;2023-01-28T00:59:17;92427.84;;;-1.50;100.00
39789;BME280;25478;42.626;23.320;2023-01-28T01:01:43;92421.75;;;-1.46;100.00
39789;BME280;25478;42.626;23.320;2023-01-28T01:04:09;92423.72;;;-1.43;100.00
39789;BME280;25478;42.626;23.320;2023-01-28T01:06:37;92427.22;;;-1.47;99.79
39789;BME280;25478;42.626;23.320;2023-01-28T01:09:05;92400.34;;;-1.67;99.32
39789;BME280;25478;42.626;23.320;2023-01-28T01:11:32;92421.63;;;-1.49;99.63
39789;BME280;25478;42.626;23.320;2023-01-28T01:14:00;92421.31;;;-1.48;99.22
39789;BME280;25478;42.626;23.320;2023-01-28T01:16:28;92422.94;;;-1.43;98.63
39789;BME280;25478;42.626;23.320;2023-01-28T01:18:55;92408.06;;;-1.67;98.90
39789;BME280;25478;42.626;23.320;2023-01-28T01:21:23;92438.25;;;-1.59;99.39
39789;BME280;25478;42.626;23.320;2023-01-28T01:23:50;92437.28;;;-1.54;99.08
39789;BME280;25478;42.626;23.320;2023-01-28T01:26:16;92439.28;;;-1.60;99.07
39789;BME280;25478;42.626;23.320;2023-01-28T01:28:42;92439.28;;;-1.60;99.25
39789;BME280;25478;42.626;23.320;2023-01-28T01:31:11;92440.81;;;-1.59;98.73
39789;BME280;25478;42.626;23.320;2023-01-28T01:33:38;92417.50;;;-1.71;98.90
39789;BME280;25478;42.626;23.320;2023-01-28T01:36:04;92416.91;;;-1.77;99.17
39789;BME280;25478;42.626;23.320;2023-01-28T01:38:30;92439.47;;;-1.65;99.28
39789;BME280;25478;42.626;23.320;2023-01-28T01:40:57;92431.53;;;-1.60;99.62
39789;BME280;25478;42.626;23.320;2023-01-28T01:43:23;92427.22;;;-1.68;99.35
39789;BME280;25478;42.626;23.320;2023-01-28T01:45:52;92437.78;;;-1.61;99.36
39789;BME280;25478;42.626;23.320;2023-01-28T01:48:26;92438.09;;;-1.62;99.20
39789;BME280;25478;42.626;23.320;2023-01-28T01:50:56;92439.16;;;-1.63;98.87
39789;BME280;25478;42.626;23.320;2023-01-28T01:53:24;92441.63;;;-1.67;98.96
39789;BME280;25478;42.626;23.320;2023-01-28T01:55:53;92438.41;;;-1.64;99.59
39789;BME280;25478;42.626;23.320;2023-01-28T01:58:23;92438.09;;;-1.62;99.39
39789;BME280;25478;42.626;23.320;2023-01-28T02:00:50;92432.22;;;-1.72;99.12
39789;BME280;25478;42.626;23.320;2023-01-28T02:03:18;92442.69;;;-1.68;99.22
39789;BME280;25478;42.626;23.320;2023-01-28T02:05:48;92441.03;;;-1.73;98.72
39789;BME280;25478;42.626;23.320;2023-01-28T02:08:13;92445.44;;;-1.73;99.54
39789;BME280;25478;42.626;23.320;2023-01-28T02:13:22;92413.88;;;-2.00;99.45
39789;BME280;25478;42.626;23.320;2023-01-28T02:15:49;92453.50;;;-1.75;99.66
39789;BME280;25478;42.626;23.320;2023-01-28T02:18:15;92444.25;;;-1.76;99.57
39789;BME280;25478;42.626;23.320;2023-01-28T02:21:08;92452.13;;;-1.72;99.04
39789;BME280;25478;42.626;23.320;2023-01-28T02:23:54;92451.47;;;-1.69;99.37
39789;BME280;25478;42.626;23.320;2023-01-28T02:26:39;92451.19;;;-1.67;99.15
39789;BME280;25478;42.626;23.320;2023-01-28T02:29:34;92452.44;;;-1.74;99.01
39789;BME280;25478;42.626;23.320;2023-01-28T02:32:16;92457.91;;;-1.75;99.21
39789;BME280;25478;42.626;23.320;2023-01-28T02:35:00;92429.16;;;-1.94;98.70
39789;BME280;25478;42.626;23.320;2023-01-28T02:37:37;92460.25;;;-1.91;99.45
39789;BME280;25478;42.626;23.320;2023-01-28T02:40:10;92456.56;;;-1.81;99.04
39789;BME280;25478;42.626;23.320;2023-01-28T02:42:38;92456.41;;;-1.76;99.13
39789;BME280;25478;42.626;23.320;2023-01-28T02:45:21;92463.38;;;-1.77;98.79
39789;BME280;25478;42.626;23.320;2023-01-28T02:47:47;92460.03;;;-1.77;98.79
39789;BME280;25478;42.626;23.320;2023-01-28T02:50:22;92457.00;;;-1.79;98.91
39789;BME280;25478;42.626;23.320;2023-01-28T02:56:17;92460.66;;;-1.80;99.22
39789;BME280;25478;42.626;23.320;2023-01-28T02:58:57;92457.81;;;-1.87;99.43
39789;BME280;25478;42.626;23.320;2023-01-28T03:01:27;92451.78;;;-1.91;98.99
39789;BME280;25478;42.626;23.320;2023-01-28T03:04:03;92458.84;;;-1.80;99.47
39789;BME280;25478;42.626;23.320;2023-01-28T03:06:36;92467.91;;;-1.74;99.39
39789;BME280;25478;42.626;23.320;2023-01-28T03:09:06;92447.63;;;-1.84;99.50
39789;BME280;25478;42.626;23.320;2023-01-28T03:11:58;92465.34;;;-1.74;99.23
39789;BME280;25478;42.626;23.320;2023-01-28T03:14:48;92458.34;;;-1.73;98.79
39789;BME280;25478;42.626;23.320;2023-01-28T03:17:52;92462.59;;;-1.77;98.74
39789;BME280;25478;42.626;23.320;2023-01-28T03:23:38;92469.44;;;-1.73;99.09
39789;BME280;25478;42.626;23.320;2023-01-28T03:26:26;92463.63;;;-1.70;98.71
39789;BME280;25478;42.626;23.320;2023-01-28T03:29:13;92439.44;;;-1.86;99.01
39789;BME280;25478;42.626;23.320;2023-01-28T03:32:02;92462.59;;;-1.77;97.89
39789;BME280;25478;42.626;23.320;2023-01-28T03:34:46;92459.28;;;-1.78;98.43
39789;BME280;25478;42.626;23.320;2023-01-28T03:37:31;92440.84;;;-1.97;98.76
39789;BME280;25478;42.626;23.320;2023-01-28T03:40:07;92467.47;;;-1.76;98.56
39789;BME280;25478;42.626;23.320;2023-01-28T03:42:33;92465.06;;;-1.81;98.13
39789;BME280;25478;42.626;23.320;2023-01-28T03:45:08;92465.69;;;-1.84;97.98
39789;BME280;25478;42.626;23.320;2023-01-28T03:47:35;92472.97;;;-1.86;97.28
39789;BME280;25478;42.626;23.320;2023-01-28T03:50:03;92471.94;;;-1.93;98.34
39789;BME280;25478;42.626;23.320;2023-01-28T03:52:37;92471.47;;;-1.87;98.07
39789;BME280;25478;42.626;23.320;2023-01-28T03:55:16;92476.63;;;-1.87;98.05
39789;BME280;25478;42.626;23.320;2023-01-28T03:57:42;92482.53;;;-1.86;97.49
39789;BME280;25478;42.626;23.320;2023-01-28T04:00:10;92475.09;;;-1.88;97.70
39789;BME280;25478;42.626;23.320;2023-01-28T04:02:42;92479.41;;;-1.92;97.57
39789;BME280;25478;42.626;23.320;2023-01-28T04:05:10;92472.69;;;-1.84;97.67
39789;BME280;25478;42.626;23.320;2023-01-28T04:07:40;92487.69;;;-1.86;97.29
39789;BME280;25478;42.626;23.320;2023-01-28T04:10:18;92481.19;;;-1.84;97.41
39789;BME280;25478;42.626;23.320;2023-01-28T04:13:07;92492.25;;;-1.83;97.41
39789;BME280;25478;42.626;23.320;2023-01-28T04:15:32;92478.16;;;-1.94;97.36
39789;BME280;25478;42.626;23.320;2023-01-28T04:18:00;92481.97;;;-1.92;97.25
39789;BME280;25478;42.626;23.320;2023-01-28T04:20:29;92470.94;;;-2.01;97.46
39789;BME280;25478;42.626;23.320;2023-01-28T04:22:57;92503.94;;;-1.86;96.90
39789;BME280;25478;42.626;23.320;2023-01-28T04:25:23;92498.00;;;-1.86;97.22
39789;BME280;25478;42.626;23.320;2023-01-28T04:27:48;92484.88;;;-2.02;97.26
39789;BME280;25478;42.626;23.320;2023-01-28T04:30:18;92502.09;;;-1.85;97.21
39789;BME280;25478;42.626;23.320;2023-01-28T04:32:53;92504.41;;;-1.84;97.70
39789;BME280;25478;42.626;23.320;2023-01-28T04:35:34;92504.84;;;-1.82;97.76
39789;BME280;25478;42.626;23.320;2023-01-28T04:38:28;92503.00;;;-1.81;97.06
39789;BME280;25478;42.626;23.320;2023-01-28T04:41:04;92510.44;;;-1.80;96.49
39789;BME280;25478;42.626;23.320;2023-01-28T04:43:32;92513.66;;;-1.83;96.24
39789;BME280;25478;42.626;23.320;2023-01-28T04:46:24;92516.06;;;-1.86;96.30
39789;BME280;25478;42.626;23.320;2023-01-28T04:49:01;92519.41;;;-1.86;97.18
39789;BME280;25478;42.626;23.320;2023-01-28T04:51:50;92518.38;;;-1.93;96.35
39789;BME280;25478;42.626;23.320;2023-01-28T04:54:19;92518.38;;;-1.93;96.14
39789;BME280;25478;42.626;23.320;2023-01-28T04:56:44;92526.75;;;-1.96;96.49
39789;BME280;25478;42.626;23.320;2023-01-28T04:59:10;92520.50;;;-1.95;96.46
39789;BME280;25478;42.626;23.320;2023-01-28T05:01:36;92520.69;;;-2.01;96.12
39789;BME280;25478;42.626;23.320;2023-01-28T05:04:03;92526.28;;;-1.99;96.85
39789;BME280;25478;42.626;23.320;2023-01-28T05:06:31;92533.72;;;-1.97;95.74
39789;BME280;25478;42.626;23.320;2023-01-28T05:09:05;92537.56;;;-2.12;96.28
39789;BME280;25478;42.626;23.320;2023-01-28T05:11:31;92540.59;;;-2.10;96.52
39789;BME280;25478;42.626;23.320;2023-01-28T05:14:01;92538.28;;;-2.03;96.45
39789;BME280;25478;42.626;23.320;2023-01-28T05:16:32;92546.50;;;-2.01;96.75
39789;BME280;25478;42.626;23.320;2023-01-28T05:19:00;92543.91;;;-2.01;96.27
39789;BME280;25478;42.626;23.320;2023-01-28T05:21:32;92547.56;;;-2.02;96.18
39789;BME280;25478;42.626;23.320;2023-01-28T05:24:01;92544.66;;;-2.00;97.04
39789;BME280;25478;42.626;23.320;2023-01-28T05:26:27;92555.88;;;-2.05;96.23
39789;BME280;25478;42.626;23.320;2023-01-28T05:28:53;92551.19;;;-2.03;96.32
39789;BME280;25478;42.626;23.320;2023-01-28T05:31:19;92551.34;;;-2.08;96.82
39789;BME280;25478;42.626;23.320;2023-01-28T05:33:44;92552.44;;;-2.09;97.05
39789;BME280;25478;42.626;23.320;2023-01-28T05:36:11;92554.84;;;-2.12;96.90
39789;BME280;25478;42.626;23.320;2023-01-28T05:38:37;92555.88;;;-2.05;96.43
39789;BME280;25478;42.626;23.320;2023-01-28T05:41:03;92544.84;;;-2.14;97.17
39789;BME280;25478;42.626;23.320;2023-01-28T05:43:28;92559.06;;;-1.99;97.10
39789;BME280;25478;42.626;23.320;2023-01-28T05:46:10;92556.19;;;-1.98;96.56
39789;BME280;25478;42.626;23.320;2023-01-28T05:48:54;92564.06;;;-1.94;96.33
39789;BME280;25478;42.626;23.320;2023-01-28T05:51:38;92544.69;;;-2.09;96.39
39789;BME280;25478;42.626;23.320;2023-01-28T05:54:07;92571.66;;;-1.98;96.81
39789;BME280;25478;42.626;23.320;2023-01-28T05:56:33;92568.47;;;-1.94;97.15
39789;BME280;25478;42.626;23.320;2023-01-28T05:59:02;92568.00;;;-1.88;96.28
39789;BME280;25478;42.626;23.320;2023-01-28T06:01:28;92569.38;;;-1.90;96.61
39789;BME280;25478;42.626;23.320;2023-01-28T06:03:54;92551.50;;;-2.04;95.85
39789;BME280;25478;42.626;23.320;2023-01-28T06:06:19;92576.94;;;-1.94;96.69
39789;BME280;25478;42.626;23.320;2023-01-28T06:08:45;92580.00;;;-1.92;96.03
39789;BME280;25478;42.626;23.320;2023-01-28T06:11:14;92581.06;;;-1.93;96.13
39789;BME280;25478;42.626;23.320;2023-01-28T06:13:41;92588.50;;;-1.91;96.22
39789;BME280;25478;42.626;23.320;2023-01-28T06:16:24;92587.25;;;-1.85;96.89
39789;BME280;25478;42.626;23.320;2023-01-28T06:19:25;92589.09;;;-1.94;96.64
39789;BME280;25478;42.626;23.320;2023-01-28T06:21:51;92600.16;;;-1.85;96.55
39789;BME280;25478;42.626;23.320;2023-01-28T06:24:17;92605.16;;;-1.80;95.55
39789;BME280;25478;42.626;23.320;2023-01-28T06:26:43;92617.63;;;-1.91;95.57
39789;BME280;25478;42.626;23.320;2023-01-28T06:29:10;92609.28;;;-1.96;96.65
39789;BME280;25478;42.626;23.320;2023-01-28T06:31:35;92616.88;;;-1.91;96.30
39789;BME280;25478;42.626;23.320;2023-01-28T06:34:01;92622.94;;;-1.96;95.89
39789;BME280;25478;42.626;23.320;2023-01-28T06:36:26;92617.66;;;-2.00;96.19
39789;BME280;25478;42.626;23.320;2023-01-28T06:38:52;92623.56;;;-1.99;96.23
39789;BME280;25478;42.626;23.320;2023-01-28T06:41:17;92621.56;;;-2.02;96.17
39789;BME280;25478;42.626;23.320;2023-01-28T06:43:43;92635.09;;;-1.96;97.10
39789;BME280;25478;42.626;23.320;2023-01-28T06:46:08;92636.91;;;-1.97;96.54
39789;BME280;25478;42.626;23.320;2023-01-28T06:48:34;92636.75;;;-1.92;96.69
39789;BME280;25478;42.626;23.320;2023-01-28T06:50:59;92644.00;;;-1.85;96.71
39789;BME280;25478;42.626;23.320;2023-01-28T06:53:25;92633.56;;;-1.89;96.63
39789;BME280;25478;42.626;23.320;2023-01-28T06:55:50;92632.78;;;-1.89;96.00
39789;BME280;25478;42.626;23.320;2023-01-28T06:58:16;92654.19;;;-1.80;96.14
39789;BME280;25478;42.626;23.320;2023-01-28T07:00:41;92658.88;;;-1.82;95.95
39789;BME280;25478;42.626;23.320;2023-01-28T07:03:07;92652.06;;;-1.87;96.15
39789;BME280;25478;42.626;23.320;2023-01-28T07:05:32;92657.97;;;-1.86;96.27
39789;BME280;25478;42.626;23.320;2023-01-28T07:07:58;92657.38;;;-1.83;95.81
39789;BME280;25478;42.626;23.320;2023-01-28T07:10:23;92661.03;;;-1.84;96.24
39789;BME280;25478;42.626;23.320;2023-01-28T07:12:49;92669.03;;;-1.77;96.39
39789;BME280;25478;42.626;23.320;2023-01-28T07:15:14;92671.94;;;-1.79;96.16
39789;BME280;25478;42.626;23.320;2023-01-28T07:17:41;92676.78;;;-1.86;96.28
39789;BME280;25478;42.626;23.320;2023-01-28T07:20:08;92682.56;;;-1.80;97.17
39789;BME280;25478;42.626;23.320;2023-01-28T07:22:36;92684.50;;;-1.77;96.68
39789;BME280;25478;42.626;23.320;2023-01-28T07:25:04;92669.03;;;-1.86;96.46
39789;BME280;25478;42.626;23.320;2023-01-28T07:27:30;92689.22;;;-1.71;96.71
39789;BME280;25478;42.626;23.320;2023-01-28T07:29:55;92689.53;;;-1.72;96.98
39789;BME280;25478;42.626;23.320;2023-01-28T07:32:21;92690.72;;;-1.70;96.23
39789;BME280;25478;42.626;23.320;2023-01-28T07:34:46;92681.81;;;-1.81;96.83
39789;BME280;25478;42.626;23.320;2023-01-28T07:37:12;92697.13;;;-1.67;96.66
39789;BME280;25478;42.626;23.320;2023-01-28T07:39:37;92699.97;;;-1.68;96.95
39789;BME280;25478;42.626;23.320;2023-01-28T07:42:03;92699.69;;;-1.58;96.77
39789;BME280;25478;42.626;23.320;2023-01-28T07:44:44;92698.44;;;-1.52;96.62
39789;BME280;25478;42.626;23.320;2023-01-28T07:47:09;92699.06;;;-1.55;96.40
39789;BME280;25478;42.626;23.320;2023-01-28T07:49:35;92699.66;;;-1.50;95.85
39789;BME280;25478;42.626;23.320;2023-01-28T07:52:04;92707.41;;;-1.41;96.12
39789;BME280;25478;42.626;23.320;2023-01-28T07:54:30;92702.22;;;-1.41;94.47
39789;BME280;25478;42.626;23.320;2023-01-28T07:56:55;92711.31;;;-1.44;95.11
39789;BME280;25478;42.626;23.320;2023-01-28T07:59:21;92708.47;;;-1.42;94.83
39789;BME280;25478;42.626;23.320;2023-01-28T08:01:48;92704.81;;;-1.41;93.74
39789;BME280;25478;42.626;23.320;2023-01-28T08:04:13;92714.22;;;-1.45;94.54
39789;BME280;25478;42.626;23.320;2023-01-28T08:06:38;92713.03;;;-1.48;94.16
39789;BME280;25478;42.626;23.320;2023-01-28T08:09:05;92713.63;;;-1.42;94.20
39789;BME280;25478;42.626;23.320;2023-01-28T08:11:33;92713.44;;;-1.37;93.68
39789;BME280;25478;42.626;23.320;2023-01-28T08:13:59;92718.16;;;-1.30;94.12
39789;BME280;25478;42.626;23.320;2023-01-28T08:16:26;92716.59;;;-1.23;93.83
39789;BME280;25478;42.626;23.320;2023-01-28T08:18:53;92716.72;;;-1.19;93.96
39789;BME280;25478;42.626;23.320;2023-01-28T08:21:18;92715.50;;;-1.13;93.04
39789;BME280;25478;42.626;23.320;2023-01-28T08:23:43;92715.34;;;-1.08;93.00
39789;BME280;25478;42.626;23.320;2023-01-28T08:26:09;92720.97;;;-1.15;92.85
39789;BME280;25478;42.626;23.320;2023-01-28T08:28:34;92720.66;;;-1.13;92.82
39789;BME280;25478;42.626;23.320;2023-01-28T08:31:00;92729.50;;;-1.14;92.29
39789;BME280;25478;42.626;23.320;2023-01-28T08:33:26;92730.13;;;-1.17;92.70
39789;BME280;25478;42.626;23.320;2023-01-28T08:35:52;92716.25;;;-1.13;92.60
39789;BME280;25478;42.626;23.320;2023-01-28T08:38:17;92704.28;;;-1.17;92.58
39789;BME280;25478;42.626;23.320;2023-01-28T08:40:47;92726.41;;;-0.99;92.22
39789;BME280;25478;42.626;23.320;2023-01-28T08:43:15;92722.72;;;-0.89;92.17
39789;BME280;25478;42.626;23.320;2023-01-28T08:45:40;92724.97;;;-0.88;91.79
39789;BME280;25478;42.626;23.320;2023-01-28T08:48:08;92717.94;;;-0.78;92.25
39789;BME280;25478;42.626;23.320;2023-01-28T08:50:37;92730.41;;;-0.72;90.88
39789;BME280;25478;42.626;23.320;2023-01-28T08:53:09;92725.25;;;-0.80;91.04
39789;BME280;25478;42.626;23.320;2023-01-28T08:55:35;92724.16;;;-0.71;91.79
39789;BME280;25478;42.626;23.320;2023-01-28T08:58:03;92728.03;;;-0.56;90.66
39789;BME280;25478;42.626;23.320;2023-01-28T09:00:29;92732.44;;;-0.57;90.56
39789;BME280;25478;42.626;23.320;2023-01-28T09:02:54;92730.75;;;-0.52;89.82
39789;BME280;25478;42.626;23.320;2023-01-28T09:05:20;92723.56;;;-0.47;89.62
39789;BME280;25478;42.626;23.320;2023-01-28T09:07:47;92724.44;;;-0.43;89.69
39789;BME280;25478;42.626;23.320;2023-01-28T09:10:12;92731.41;;;-0.35;89.12
39789;BME280;25478;42.626;23.320;2023-01-28T09:12:38;92729.72;;;-0.31;89.28
39789;BME280;25478;42.626;23.320;2023-01-28T09:15:05;92726.69;;;-0.33;88.69
39789;BME280;25478;42.626;23.320;2023-01-28T09:17:30;92734.13;;;-0.31;88.78
39789;BME280;25478;42.626;23.320;2023-01-28T09:19:56;92738.28;;;-0.39;89.19
39789;BME280;25478;42.626;23.320;2023-01-28T09:22:21;92735.25;;;-0.41;89.11
39789;BME280;25478;42.626;23.320;2023-01-28T09:24:47;92734.78;;;-0.43;88.92
39789;BME280;25478;42.626;23.320;2023-01-28T09:27:12;92736.34;;;-0.42;89.68
39789;BME280;25478;42.626;23.320;2023-01-28T09:29:38;92734.63;;;-0.38;89.69
39789;BME280;25478;42.626;23.320;2023-01-28T09:32:04;92728.38;;;-0.37;89.26
39789;BME280;25478;42.626;23.320;2023-01-28T09:34:32;92727.78;;;-0.34;88.81
39789;BME280;25478;42.626;23.320;2023-01-28T09:36:57;92734.47;;;-0.33;89.58
39789;BME280;25478;42.626;23.320;2023-01-28T09:39:22;92741.75;;;-0.35;89.47
39789;BME280;25478;42.626;23.320;2023-01-28T09:47:26;92729.28;;;-0.33;89.90
39789;BME280;25478;42.626;23.320;2023-01-28T09:49:55;92730.97;;;-0.37;89.54
39789;BME280;25478;42.626;23.320;2023-01-28T09:52:23;92719.47;;;-0.48;90.56
39789;BME280;25478;42.626;23.320;2023-01-28T09:54:58;92726.00;;;-0.42;90.65
39789;BME280;25478;42.626;23.320;2023-01-28T09:58:07;92730.66;;;-0.35;90.45
39789;BME280;25478;42.626;23.320;2023-01-28T10:00:46;92731.22;;;-0.30;90.00
39789;BME280;25478;42.626;23.320;2023-01-28T10:06:19;92731.56;;;-0.31;90.58
39789;BME280;25478;42.626;23.320;2023-01-28T10:19:31;92697.66;;;-0.38;89.90
39789;BME280;25478;42.626;23.320;2023-01-28T10:22:03;92719.81;;;-0.29;89.67
39789;BME280;25478;42.626;23.320;2023-01-28T10:24:39;92722.13;;;-0.36;90.56
39789;BME280;25478;42.626;23.320;2023-01-28T10:27:13;92724.72;;;-0.36;91.22
39789;BME280;25478;42.626;23.320;2023-01-28T10:29:39;92721.81;;;-0.34;91.25
39789;BME280;25478;42.626;23.320;2023-01-28T10:32:20;92706.34;;;-0.43;90.92
39789;BME280;25478;42.626;23.320;2023-01-28T10:34:48;92719.75;;;-0.41;90.62
39789;BME280;25478;42.626;23.320;2023-01-28T10:37:14;92730.84;;;-0.40;90.79
39789;BME280;25478;42.626;23.320;2023-01-28T10:39:40;92726.47;;;-0.48;91.16
39789;BME280;25478;42.626;23.320;2023-01-28T10:42:19;92721.34;;;-0.57;90.74
39789;BME280;25478;42.626;23.320;2023-01-28T10:44:49;92722.59;;;-0.63;92.06
39789;BME280;25478;42.626;23.320;2023-01-28T10:47:37;92730.97;;;-0.66;92.44
39789;BME280;25478;42.626;23.320;2023-01-28T10:50:04;92712.75;;;-0.70;92.36
39789;BME280;25478;42.626;23.320;2023-01-28T10:52:30;92714.66;;;-0.58;92.60
39789;BME280;25478;42.626;23.320;2023-01-28T10:55:00;92713.59;;;-0.57;92.01
39789;BME280;25478;42.626;23.320;2023-01-28T10:57:26;92713.72;;;-0.53;92.17
39789;BME280;25478;42.626;23.320;2023-01-28T10:59:51;92716.56;;;-0.46;92.36
39789;BME280;25478;42.626;23.320;2023-01-28T11:02:30;92719.09;;;-0.38;92.20
39789;BME280;25478;42.626;23.320;2023-01-28T11:07:32;92700.56;;;-0.40;91.68
39789;BME280;25478;42.626;23.320;2023-01-28T11:09:57;92721.00;;;-0.26;91.88
39789;BME280;25478;42.626;23.320;2023-01-28T11:12:26;92702.25;;;-0.44;91.27
39789;BME280;25478;42.626;23.320;2023-01-28T11:14:57;92714.00;;;-0.25;91.26
39789;BME280;25478;42.626;23.320;2023-01-28T11:17:31;92708.41;;;-0.07;91.30
39789;BME280;25478;42.626;23.320;2023-01-28T11:20:00;92723.38;;;0.09;90.85
39789;BME280;25478;42.626;23.320;2023-01-28T11:22:41;92717.97;;;0.14;89.98
39789;BME280;25478;42.626;23.320;2023-01-28T11:28:17;92695.25;;;-0.02;89.22
39789;BME280;25478;42.626;23.320;2023-01-28T11:30:50;92723.31;;;0.17;89.15
39789;BME280;25478;42.626;23.320;2023-01-28T11:33:21;92720.81;;;0.21;89.26
39789;BME280;25478;42.626;23.320;2023-01-28T11:38:29;92722.66;;;0.20;87.83
39789;BME280;25478;42.626;23.320;2023-01-28T11:40:57;92726.94;;;0.16;86.77
39789;BME280;25478;42.626;23.320;2023-01-28T11:43:25;92719.81;;;0.13;87.67
39789;BME280;25478;42.626;23.320;2023-01-28T11:49:03;92712.41;;;0.24;87.71
39789;BME280;25478;42.626;23.320;2023-01-28T11:51:41;92717.53;;;0.33;86.84
39789;BME280;25478;42.626;23.320;2023-01-28T11:57:25;92718.59;;;0.32;86.83
39789;BME280;25478;42.626;23.320;2023-01-28T12:19:36;92713.41;;;0.32;84.40
39789;BME280;25478;42.626;23.320;2023-01-28T12:27:29;92710.44;;;0.09;86.05
39789;BME280;25478;42.626;23.320;2023-01-28T12:30:09;92713.03;;;0.09;85.72
39789;BME280;25478;42.626;23.320;2023-01-28T12:38:29;92721.28;;;0.02;85.73
39789;BME280;25478;42.626;23.320;2023-01-28T12:41:19;92723.28;;;-0.04;85.79
39789;BME280;25478;42.626;23.320;2023-01-28T12:43:56;92726.31;;;-0.02;85.47
39789;BME280;25478;42.626;23.320;2023-01-28T12:46:38;92730.19;;;-0.08;86.25
39789;BME280;25478;42.626;23.320;2023-01-28T12:56:59;92745.44;;;0.06;86.01
39789;BME280;25478;42.626;23.320;2023-01-28T12:59:31;92727.97;;;0.03;86.14
39789;BME280;25478;42.626;23.320;2023-01-28T13:02:20;92727.66;;;0.05;85.88
39789;BME280;25478;42.626;23.320;2023-01-28T13:07:22;92743.25;;;-0.04;86.65
39789;BME280;25478;42.626;23.320;2023-01-28T13:09:58;92737.19;;;-0.08;87.09
39789;BME280;25478;42.626;23.320;2023-01-28T13:12:29;92743.69;;;-0.02;87.13
39789;BME280;25478;42.626;23.320;2023-01-28T13:14:57;92726.59;;;-0.15;87.57
39789;BME280;25478;42.626;23.320;2023-01-28T13:17:28;92753.66;;;0.08;87.07
39789;BME280;25478;42.626;23.320;2023-01-28T13:19:53;92751.06;;;0.08;87.04
39789;BME280;25478;42.626;23.320;2023-01-28T13:22:33;92751.06;;;0.08;87.20
39789;BME280;25478;42.626;23.320;2023-01-28T13:25:18;92756.22;;;0.08;86.78
39789;BME280;25478;42.626;23.320;2023-01-28T13:28:21;92760.66;;;0.08;87.11
39789;BME280;25478;42.626;23.320;2023-01-28T13:30:48;92725.75;;;-0.07;87.38
39789;BME280;25478;42.626;23.320;2023-01-28T13:33:29;92761.94;;;0.22;86.16
39789;BME280;25478;42.626;23.320;2023-01-28T13:35:55;92772.47;;;0.17;85.94
39789;BME280;25478;42.626;23.320;2023-01-28T13:38:22;92760.28;;;-0.03;86.23
39789;BME280;25478;42.626;23.320;2023-01-28T13:40:54;92770.47;;;0.02;86.19
39789;BME280;25478;42.626;23.320;2023-01-28T13:43:34;92771.97;;;0.03;86.99
39789;BME280;25478;42.626;23.320;2023-01-28T13:46:10;92778.16;;;0.11;86.16
39789;BME280;25478;42.626;23.320;2023-01-28T13:48:40;92776.72;;;0.01;86.14
39789;BME280;25478;42.626;23.320;2023-01-28T13:54:01;92784.91;;;0.03;86.60
39789;BME280;25478;42.626;23.320;2023-01-28T13:56:38;92780.59;;;0.07;86.52
39789;BME280;25478;42.626;23.320;2023-01-28T14:07:29;92791.34;;;-0.03;86.87
39789;BME280;25478;42.626;23.320;2023-01-28T14:10:24;92786.03;;;-0.07;87.01
39789;BME280;25478;42.626;23.320;2023-01-28T14:17:56;92799.59;;;-0.39;88.69
39789;BME280;25478;42.626;23.320;2023-01-28T14:20:38;92809.78;;;-0.43;89.14
39789;BME280;25478;42.626;23.320;2023-01-28T14:23:15;92803.75;;;-0.47;89.70
39789;BME280;25478;42.626;23.320;2023-01-28T14:31:10;92819.16;;;-0.68;90.84
39789;BME280;25478;42.626;23.320;2023-01-28T14:33:37;92813.41;;;-0.65;90.59
39789;BME280;25478;42.626;23.320;2023-01-28T14:36:04;92814.19;;;-0.73;90.43
39789;BME280;25478;42.626;23.320;2023-01-28T14:38:33;92796.47;;;-0.92;90.79
39789;BME280;25478;42.626;23.320;2023-01-28T14:41:02;92817.88;;;-0.82;91.72
39789;BME280;25478;42.626;23.320;2023-01-28T14:43:28;92823.94;;;-0.87;91.77
39789;BME280;25478;42.626;23.320;2023-01-28T14:46:28;92830.50;;;-0.90;91.63
39789;BME280;25478;42.626;23.320;2023-01-28T14:49:09;92827.28;;;-0.87;92.24
39789;BME280;25478;42.626;23.320;2023-01-28T14:51:49;92836.56;;;-0.86;92.84
39789;BME280;25478;42.626;23.320;2023-01-28T14:54:47;92832.31;;;-0.90;92.46